Portada
METAR-TAF:

METAR-TAF

Aeroports :

Theveste, Algèria

latitud: 35-29N, longitud: 008-08E, altitud: 813 m

Observació

L'informe es va fer fa 1 hora i 3 minuts, a les 09:00 UTC
Vent 3 kt del Oest/Sud-Oest
Temperatura 29°C
Humitat 52%
Pressió 1020 hPa
Visibilitat 10 km o més
sense núvols per sota de 1500 mi sense presència de cumulonimbus.

METAR: DABS 050900Z 24003KT CAVOK 29/18 Q1020

Hora: 11:03 (10:03 UTC)

Pronòstic

L'informe es va fer fa 5 hores i 3 minuts, a les 05:00 UTC
Pronòstic vàlid del 05 a les 06 UTC al 06 a les 06 UTC
Vent 8 kt del Sud-Est
Visibilitat 10 km o més
sense núvols per sota de 1500 mi sense presència de cumulonimbus.
Evolucionant progressivament
l' 05 a les 09 UTC al 05 a les 11 UTC
Vent 13 kt del Sud-Oest
Evolucionant progressivament
l' 05 a les 20 UTC al 05 a les 22 UTC
Vent 8 kt del Oest/Nord-Oest

TAF: DABS 050500Z 0506/0606 13008KT CAVOK BECMG 0509/0511 22013KT BECMG 0520/0522 29008KT

Observacions i pronòstics meteorològics de més de 4000 aeroports (METAR i TAF).

Les estacions disponibles són els punts grocs i vermells al mapa.

Posi el ratolí al punt desitjat per veure el nom de l'estació.

Feu clic per veure les observacions i els pronòstics meteorològics.

Per canviar el mapa: feu clic els botons verds amb una creu de color negre per apropar; al botó verd amb un guió per allunyar la imatge; o en les fletxes verdes per a mapes adjacents.


METAR-TAF: